Time;durP1;ratioP1;P1;durP2;ratioP2;P2;SDS_P1;SDS_P2;PMS_P1;PMS_P2;Temp;Humidity;BMP_temperature;BMP_pressure;BME280_temperature;BME280_humidity;BME280_pressure;Samples;Min_cycle;Max_cycle;Signal;HPM_P1;HPM_P2
2022/06/02 00:00:10;;;;;;;1.60;1.50;;;19.10;99.90;;;;;;6301635;28;20231;-61
2022/06/02 00:03:24;;;;;;;1.70;1.60;;;19.20;99.90;;;;;;6300966;28;20219;-62
2022/06/02 00:06:42;;;;;;;2.20;1.50;;;19.30;99.90;;;;;;6300660;28;20231;-63
2022/06/02 00:10:00;;;;;;;2.97;1.53;;;19.20;99.90;;;;;;6301451;28;20223;-64
2022/06/02 00:13:15;;;;;;;2.23;1.60;;;19.30;99.90;;;;;;6301446;28;20235;-63
2022/06/02 00:16:25;;;;;;;1.40;1.30;;;19.20;99.90;;;;;;6300384;28;20211;-62
2022/06/02 00:19:44;;;;;;;1.77;1.67;;;19.10;99.90;;;;;;6299358;28;20280;-61
2022/06/02 00:23:03;;;;;;;2.03;1.93;;;19.20;99.90;;;;;;6297981;28;20231;-61
2022/06/02 00:26:25;;;;;;;2.10;1.63;;;19.20;99.90;;;;;;6298268;28;20238;-61
2022/06/02 00:29:35;;;;;;;2.40;2.20;;;19.10;99.90;;;;;;6298960;28;20230;-61
2022/06/02 00:32:47;;;;;;;1.63;1.53;;;19.10;99.90;;;;;;6289454;28;20237;-62
2022/06/02 00:35:57;;;;;;;1.87;1.77;;;18.90;99.90;;;;;;6300545;28;20223;-62
2022/06/02 00:39:00;;;;;;;2.00;1.80;;;18.80;99.90;;;;;;6298173;28;20473;-61
2022/06/02 00:42:12;;;;;;;1.60;1.50;;;18.60;99.90;;;;;;6299818;28;20238;-61
2022/06/02 00:45:18;;;;;;;2.13;1.53;;;18.60;99.90;;;;;;6299392;28;20242;-61
2022/06/02 00:48:26;;;;;;;6.20;1.57;;;18.60;99.90;;;;;;6297931;28;20476;-61
2022/06/02 00:51:46;;;;;;;1.60;1.50;;;18.60;99.90;;;;;;6299697;28;20219;-61
2022/06/02 00:58:35;;;;;;;2.03;1.80;;;18.50;99.90;;;;;;6271950;28;20927;-62
2022/06/02 01:01:38;;;;;;;2.53;1.63;;;18.50;99.90;;;;;;6297145;28;20833;-62
2022/06/02 01:04:44;;;;;;;2.27;2.00;;;18.40;99.90;;;;;;6299809;28;20459;-62
2022/06/02 01:07:59;;;;;;;2.03;1.93;;;18.30;99.90;;;;;;6300468;28;20488;-62
2022/06/02 01:11:14;;;;;;;2.23;1.93;;;18.10;99.90;;;;;;6297956;28;20220;-62
2022/06/02 01:14:36;;;;;;;1.97;1.63;;;18.10;99.90;;;;;;6296885;28;20484;-62
2022/06/02 01:17:51;;;;;;;2.53;2.00;;;18.00;99.90;;;;;;6297574;28;20477;-62
2022/06/02 01:21:19;;;;;;;2.50;1.97;;;18.10;99.90;;;;;;6300459;28;20461;-62
2022/06/02 01:24:38;;;;;;;2.43;2.10;;;18.10;99.90;;;;;;6299967;28;20487;-62
2022/06/02 01:28:16;;;;;;;1.67;1.57;;;18.10;99.90;;;;;;6299727;28;20466;-62
2022/06/02 01:31:30;;;;;;;3.20;2.40;;;18.00;99.90;;;;;;6299693;28;20462;-61
2022/06/02 01:34:50;;;;;;;2.13;1.97;;;18.10;99.90;;;;;;6300123;28;20426;-61
2022/06/02 01:38:04;;;;;;;2.10;2.00;;;18.10;99.90;;;;;;6300092;28;20480;-61
2022/06/02 01:41:20;;;;;;;2.90;2.60;;;18.00;99.90;;;;;;6300121;28;20466;-61
2022/06/02 01:44:30;;;;;;;2.17;1.97;;;18.00;99.90;;;;;;6299519;28;20473;-62
2022/06/02 01:47:37;;;;;;;2.60;2.40;;;18.00;99.90;;;;;;6300056;28;20476;-62
2022/06/02 01:50:49;;;;;;;2.77;2.20;;;17.90;99.90;;;;;;6299895;28;20800;-62
2022/06/02 01:54:04;;;;;;;2.47;2.27;;;17.80;99.90;;;;;;6299482;28;20481;-62
2022/06/02 01:57:24;;;;;;;2.37;2.20;;;17.90;99.90;;;;;;6299520;28;20491;-62
2022/06/02 02:00:31;;;;;;;1.90;1.80;;;17.90;99.90;;;;;;6299611;28;20966;-62
2022/06/02 02:03:45;;;;;;;2.33;2.13;;;17.80;99.90;;;;;;6299497;28;20819;-62
2022/06/02 02:06:59;;;;;;;1.77;1.67;;;17.80;99.90;;;;;;6299295;28;20967;-61
2022/06/02 02:10:15;;;;;;;2.37;2.23;;;17.80;99.90;;;;;;6300954;28;20484;-61
2022/06/02 02:13:29;;;;;;;5.60;3.60;;;17.70;99.90;;;;;;6303318;28;20545;-61
2022/06/02 02:16:45;;;;;;;2.63;2.20;;;17.70;99.90;;;;;;6304757;28;20441;-61
2022/06/02 02:20:03;;;;;;;1.97;1.87;;;17.60;99.90;;;;;;6304212;28;20800;-61
2022/06/02 02:23:15;;;;;;;2.53;2.40;;;17.60;99.90;;;;;;6304232;28;20819;-61
2022/06/02 02:26:26;;;;;;;5.63;1.83;;;17.60;99.90;;;;;;6303779;28;20788;-62
2022/06/02 02:29:41;;;;;;;3.00;2.03;;;17.70;99.90;;;;;;6304426;28;20477;-62
2022/06/02 02:32:53;;;;;;;3.70;2.40;;;17.60;99.90;;;;;;6304042;28;20465;-62
2022/06/02 02:36:05;;;;;;;4.17;2.20;;;17.60;99.90;;;;;;6304124;28;20465;-62
2022/06/02 02:39:15;;;;;;;3.30;2.93;;;17.60;99.90;;;;;;6303742;28;20560;-62
2022/06/02 02:42:27;;;;;;;3.60;3.30;;;17.60;99.90;;;;;;6303794;28;20465;-63
2022/06/02 02:45:46;;;;;;;2.70;2.50;;;17.50;99.90;;;;;;6303491;28;20959;-61
2022/06/02 02:48:58;;;;;;;3.00;2.73;;;17.50;99.90;;;;;;6303587;28;20492;-61
2022/06/02 02:52:11;;;;;;;3.47;3.17;;;17.40;99.90;;;;;;6303708;28;20484;-61
2022/06/02 02:55:18;;;;;;;3.50;3.20;;;17.40;99.90;;;;;;6303367;28;20457;-62
2022/06/02 02:58:28;;;;;;;3.60;3.03;;;17.20;99.90;;;;;;6303754;28;20453;-62
2022/06/02 03:01:43;;;;;;;5.00;2.90;;;17.30;99.90;;;;;;6303664;28;20429;-62
2022/06/02 03:04:54;;;;;;;3.30;3.00;;;17.30;99.90;;;;;;6303682;28;20522;-62
2022/06/02 03:08:06;;;;;;;3.83;3.10;;;17.20;99.90;;;;;;6303868;28;21049;-62
2022/06/02 03:11:24;;;;;;;2.80;2.60;;;17.20;99.90;;;;;;6303792;28;20469;-62
2022/06/02 03:14:41;;;;;;;3.53;3.27;;;17.10;99.90;;;;;;6303484;28;20903;-62
2022/06/02 03:18:04;;;;;;;3.60;3.03;;;17.00;99.90;;;;;;6303523;28;20947;-62
2022/06/02 03:21:16;;;;;;;2.90;2.70;;;17.00;99.90;;;;;;6302007;28;20571;-62
2022/06/02 03:24:46;;;;;;;2.70;2.50;;;16.90;99.90;;;;;;6302798;28;20476;-62
2022/06/02 03:27:59;;;;;;;2.90;2.60;;;17.00;99.90;;;;;;6296344;28;20477;-62
2022/06/02 03:31:10;;;;;;;2.77;2.60;;;17.00;99.90;;;;;;6302076;28;20465;-62
2022/06/02 03:34:22;;;;;;;2.83;2.63;;;17.10;99.90;;;;;;6302515;28;20473;-62
2022/06/02 03:37:38;;;;;;;2.70;2.50;;;17.10;99.90;;;;;;6301655;28;20480;-62
2022/06/02 03:41:01;;;;;;;3.37;3.07;;;17.10;99.90;;;;;;6302139;28;20481;-62
2022/06/02 03:44:16;;;;;;;3.50;3.20;;;17.20;99.90;;;;;;6292958;28;20473;-62
2022/06/02 03:47:35;;;;;;;2.70;2.50;;;17.30;99.90;;;;;;6301949;28;20966;-62
2022/06/02 03:51:17;;;;;;;3.23;2.17;;;17.30;99.90;;;;;;6302237;28;20807;-62
2022/06/02 03:54:39;;;;;;;3.20;2.90;;;17.30;99.90;;;;;;6301998;28;20466;-61
2022/06/02 03:58:10;;;;;;;3.10;2.60;;;17.30;99.90;;;;;;6302229;28;20469;-62
2022/06/02 04:01:19;;;;;;;2.50;2.30;;;17.20;99.90;;;;;;6302034;28;20960;-62
2022/06/02 04:04:34;;;;;;;3.77;2.63;;;17.20;99.90;;;;;;6301315;28;20793;-62
2022/06/02 04:07:44;;;;;;;3.80;2.60;;;17.20;99.90;;;;;;6301528;28;20485;-62
2022/06/02 04:10:55;;;;;;;2.97;2.77;;;17.30;99.90;;;;;;6301159;28;20473;-62
2022/06/02 04:14:08;;;;;;;2.40;2.20;;;17.40;99.90;;;;;;6301554;28;20469;-62
2022/06/02 04:17:21;;;;;;;2.73;2.53;;;17.50;99.90;;;;;;6301033;28;20486;-62
2022/06/02 04:20:41;;;;;;;2.70;2.17;;;17.60;99.90;;;;;;6301466;28;20995;-62
2022/06/02 04:24:16;;;;;;;3.07;2.30;;;17.60;99.90;;;;;;6301572;28;20486;-62
2022/06/02 04:27:26;;;;;;;3.30;2.20;;;17.80;99.90;;;;;;6301217;28;20478;-61
2022/06/02 04:30:40;;;;;;;4.47;2.50;;;17.90;99.90;;;;;;6300904;28;20789;-61
2022/06/02 04:33:56;;;;;;;2.60;2.23;;;18.00;99.90;;;;;;6300679;28;20545;-61
2022/06/02 04:37:07;;;;;;;3.03;2.70;;;17.90;99.90;;;;;;6300996;28;20977;-61
2022/06/02 04:40:22;;;;;;;3.73;2.87;;;17.80;99.90;;;;;;6300913;28;20477;-61
2022/06/02 04:43:33;;;;;;;2.30;2.20;;;17.90;99.90;;;;;;6300228;28;20471;-61
2022/06/02 04:46:51;;;;;;;2.07;1.87;;;17.90;99.90;;;;;;6296041;28;20485;-61
2022/06/02 04:50:00;;;;;;;2.60;2.40;;;18.10;99.90;;;;;;6300673;28;20473;-62
2022/06/02 04:53:12;;;;;;;2.60;2.40;;;18.30;99.90;;;;;;6300346;28;20576;-62
2022/06/02 04:56:29;;;;;;;4.10;2.83;;;18.50;99.90;;;;;;6300192;28;20461;-63
2022/06/02 04:59:39;;;;;;;2.60;2.23;;;18.60;99.90;;;;;;6300145;28;20485;-62
2022/06/02 05:02:56;;;;;;;3.43;2.70;;;18.80;99.90;;;;;;6302100;28;20235;-62
2022/06/02 05:06:06;;;;;;;3.43;2.90;;;18.90;99.90;;;;;;6309465;28;20292;-62
2022/06/02 05:09:18;;;;;;;2.53;2.33;;;19.10;99.90;;;;;;6301482;28;20227;-62
2022/06/02 05:12:30;;;;;;;3.63;3.33;;;19.30;99.90;;;;;;6300164;28;20277;-62
2022/06/02 05:16:00;;;;;;;6.80;3.10;;;19.50;99.90;;;;;;6300061;28;20226;-61
2022/06/02 05:19:34;;;;;;;2.80;2.60;;;19.70;99.90;;;;;;6300323;28;20231;-62
2022/06/02 05:23:03;;;;;;;4.67;2.80;;;19.90;99.90;;;;;;6299584;28;20244;-62
2022/06/02 05:26:31;;;;;;;3.30;2.53;;;20.20;99.90;;;;;;6299784;28;20223;-62
2022/06/02 05:29:48;;;;;;;2.53;2.33;;;20.40;99.90;;;;;;6299408;28;20242;-62
2022/06/02 05:33:11;;;;;;;3.67;3.37;;;20.80;99.90;;;;;;6300188;28;20254;-62
2022/06/02 05:36:40;;;;;;;3.47;2.60;;;21.10;99.90;;;;;;6299778;28;20227;-62
2022/06/02 05:40:03;;;;;;;2.90;2.70;;;21.10;99.90;;;;;;6299512;28;20237;-62
2022/06/02 05:43:22;;;;;;;3.87;3.50;;;21.10;99.90;;;;;;6299022;28;20227;-62
2022/06/02 05:46:38;;;;;;;3.00;2.80;;;21.00;99.90;;;;;;6298722;28;20717;-62
2022/06/02 05:49:50;;;;;;;3.90;3.60;;;21.00;99.90;;;;;;6299923;28;20237;-62
2022/06/02 05:53:04;;;;;;;3.97;3.03;;;21.00;99.90;;;;;;6299735;28;20676;-62
2022/06/02 05:56:20;;;;;;;3.60;3.30;;;21.00;99.90;;;;;;6299624;28;20223;-62
2022/06/02 05:59:58;;;;;;;3.30;3.07;;;21.00;99.90;;;;;;6299488;28;20223;-62
2022/06/02 06:03:18;;;;;;;2.97;2.77;;;21.00;99.90;;;;;;6299546;28;20246;-62
2022/06/02 06:06:31;;;;;;;2.80;2.60;;;21.40;99.90;;;;;;6299370;28;20246;-62
2022/06/02 06:09:52;;;;;;;5.40;3.40;;;21.60;99.90;;;;;;6298898;28;20250;-62
2022/06/02 06:13:06;;;;;;;2.87;2.67;;;21.90;99.90;;;;;;6299089;28;20234;-62
2022/06/02 06:16:16;;;;;;;3.80;3.33;;;22.60;99.90;;;;;;6298857;28;20703;-62
2022/06/02 06:19:49;;;;;;;4.70;3.03;;;23.60;99.90;;;;;;6299493;28;20231;-62
2022/06/02 06:23:24;;;;;;;5.00;3.30;;;24.20;99.70;;;;;;6288181;28;20227;-62
2022/06/02 06:26:38;;;;;;;3.77;3.47;;;24.50;98.50;;;;;;6296485;28;20568;-62
2022/06/02 06:30:00;;;;;;;7.73;3.60;;;25.40;97.60;;;;;;6299500;28;20238;-62
2022/06/02 06:33:16;;;;;;;5.83;3.43;;;25.50;95.90;;;;;;6298941;28;20234;-62
2022/06/02 06:36:34;;;;;;;4.43;3.27;;;26.20;94.90;;;;;;6298950;28;20227;-63
2022/06/02 06:39:51;;;;;;;4.00;3.50;;;26.40;94.80;;;;;;6298529;28;20373;-62
2022/06/02 06:43:15;;;;;;;4.47;3.20;;;27.20;92.90;;;;;;6298857;28;20235;-63
2022/06/02 06:46:24;;;;;;;2.83;2.53;;;27.60;90.80;;;;;;6298679;28;20685;-63
2022/06/02 06:49:37;;;;;;;3.00;2.80;;;27.90;90.20;;;;;;6298461;28;20687;-62
2022/06/02 06:53:04;;;;;;;2.87;2.67;;;28.20;89.20;;;;;;6298545;28;20239;-63
2022/06/02 06:56:16;;;;;;;2.70;2.40;;;28.80;84.40;;;;;;6263380;28;20233;-63
2022/06/02 06:59:32;;;;;;;2.80;2.60;;;29.20;83.60;;;;;;6303193;28;20223;-63
2022/06/02 07:02:49;;;;;;;2.50;2.30;;;29.70;80.30;;;;;;6302838;28;20233;-63
2022/06/02 07:05:55;;;;;;;2.67;2.47;;;30.50;73.20;;;;;;6297278;28;20272;-64
2022/06/02 07:09:05;;;;;;;4.57;2.60;;;30.60;66.70;;;;;;6302122;28;20227;-62
2022/06/02 07:15:49;;;;;;;2.60;2.40;;;30.10;66.90;;;;;;6300637;28;20683;-62
2022/06/02 07:18:59;;;;;;;3.53;2.80;;;30.10;67.00;;;;;;6299912;28;20621;-62
2022/06/02 07:22:09;;;;;;;3.33;2.83;;;31.10;66.10;;;;;;6298808;28;20222;-62
2022/06/02 07:25:19;;;;;;;3.25;2.83;;;32.20;61.30;;;;;;6301100;28;20234;-62
2022/06/02 07:28:30;;;;;;;2.72;2.40;;;33.30;58.00;;;;;;6299606;28;20663;-62
2022/06/02 07:32:08;;;;;;;4.10;2.30;;;34.40;56.20;;;;;;6301035;28;20209;-62
2022/06/02 07:35:44;;;;;;;2.55;2.10;;;35.10;52.10;;;;;;6302463;28;20706;-62
2022/06/02 07:39:21;;;;;;;2.20;2.00;;;35.40;50.40;;;;;;6297650;28;20317;-62
2022/06/02 07:42:57;;;;;;;2.20;2.00;;;36.20;49.10;;;;;;6297579;28;20317;-63
2022/06/02 07:46:16;;;;;;;2.40;2.20;;;36.50;46.40;;;;;;6246353;28;20231;-62
2022/06/02 07:49:41;;;;;;;4.15;2.38;;;36.00;45.70;;;;;;6302268;28;20235;-62
2022/06/02 07:52:54;;;;;;;4.10;2.65;;;35.50;46.40;;;;;;6301948;28;20233;-64
2022/06/02 07:56:03;;;;;;;2.63;2.42;;;34.70;47.80;;;;;;6302551;28;20229;-62
2022/06/02 07:59:16;;;;;;;2.60;2.40;;;34.40;48.10;;;;;;6292486;28;20226;-62
2022/06/02 08:02:35;;;;;;;2.45;2.25;;;33.50;48.70;;;;;;6302177;28;20292;-62
2022/06/02 08:05:48;;;;;;;2.88;2.67;;;33.10;50.10;;;;;;6301418;28;20323;-62
2022/06/02 08:09:01;;;;;;;5.10;2.47;;;32.50;49.60;;;;;;6300539;28;20684;-62
2022/06/02 08:12:11;;;;;;;3.75;2.42;;;31.20;51.10;;;;;;6296953;28;20231;-64
2022/06/02 08:15:35;;;;;;;3.17;2.85;;;30.70;53.10;;;;;;6293661;28;20544;-63
2022/06/02 08:18:56;;;;;;;4.80;2.90;;;30.20;54.50;;;;;;6287388;28;20245;-63
2022/06/02 08:22:03;;;;;;;3.00;2.70;;;29.80;54.70;;;;;;6297447;28;20223;-63
2022/06/02 08:25:12;;;;;;;2.87;2.67;;;29.60;55.10;;;;;;6275987;28;20242;-63
2022/06/02 08:28:32;;;;;;;2.57;2.37;;;29.40;55.20;;;;;;6275549;28;20238;-63
2022/06/02 08:32:08;;;;;;;2.83;2.63;;;29.20;55.30;;;;;;6287643;28;20223;-62
2022/06/02 08:35:20;;;;;;;4.00;3.07;;;28.90;56.30;;;;;;6301113;28;20233;-62
2022/06/02 08:38:46;;;;;;;3.17;2.90;;;28.60;58.00;;;;;;6300516;28;20234;-63
2022/06/02 08:42:21;;;;;;;3.47;3.17;;;28.00;59.80;;;;;;6300558;28;20231;-66
2022/06/02 08:45:39;;;;;;;2.63;2.43;;;27.90;60.00;;;;;;6300426;28;20276;-66
2022/06/02 08:49:24;;;;;;;4.00;3.03;;;28.00;62.70;;;;;;6287282;28;20246;-66
2022/06/02 08:53:12;;;;;;;2.93;2.63;;;27.90;61.70;;;;;;6227096;28;20227;-66
2022/06/02 08:56:43;;;;;;;2.83;2.57;;;27.90;62.70;;;;;;6275419;28;20234;-65
2022/06/02 09:00:18;;;;;;;2.43;2.23;;;28.00;60.70;;;;;;6275211;28;20242;-66
2022/06/02 09:03:53;;;;;;;4.43;2.80;;;27.80;60.20;;;;;;6268248;28;20300;-68
2022/06/02 09:07:24;;;;;;;3.20;3.00;;;28.00;60.70;;;;;;6273742;28;20245;-67
2022/06/02 09:11:13;;;;;;;3.03;2.13;;;28.00;61.40;;;;;;6274726;28;20369;-66
2022/06/02 09:14:59;;;;;;;2.50;2.17;;;27.60;59.60;;;;;;6283136;28;20568;-67
2022/06/02 09:18:16;;;;;;;4.40;2.87;;;27.40;61.90;;;;;;6267505;28;20534;-65
2022/06/02 09:21:24;;;;;;;2.67;2.47;;;27.60;62.10;;;;;;6299096;28;20231;-65
2022/06/02 09:24:31;;;;;;;2.83;2.50;;;27.80;63.40;;;;;;6299835;28;20288;-65
2022/06/02 09:28:15;;;;;;;2.80;2.60;;;27.80;62.20;;;;;;6299468;28;20544;-65
2022/06/02 09:31:36;;;;;;;2.50;2.30;;;28.20;61.70;;;;;;6299868;28;20230;-65
2022/06/02 09:35:12;;;;;;;3.23;2.80;;;28.50;59.70;;;;;;6299605;28;20223;-66
2022/06/02 09:38:36;;;;;;;2.40;2.30;;;28.70;59.80;;;;;;6295991;28;20218;-65
2022/06/02 09:41:56;;;;;;;3.30;3.00;;;28.80;58.90;;;;;;6308149;28;20248;-68
2022/06/02 09:45:12;;;;;;;3.03;2.83;;;28.40;60.10;;;;;;6323069;28;20238;-66
2022/06/02 09:48:35;;;;;;;3.17;2.87;;;27.90;62.60;;;;;;6323105;28;20585;-67
2022/06/02 09:51:53;;;;;;;2.50;2.30;;;28.00;62.10;;;;;;6323012;28;20230;-63
2022/06/02 09:55:14;;;;;;;2.63;2.43;;;28.30;60.40;;;;;;6322707;28;20230;-68
2022/06/02 09:58:48;;;;;;;2.70;2.50;;;28.40;60.10;;;;;;6322682;28;20226;-67
2022/06/02 10:02:06;;;;;;;2.53;2.30;;;28.40;60.10;;;;;;6322485;28;20252;-67
2022/06/02 10:05:26;;;;;;;2.70;2.50;;;28.20;59.40;;;;;;6322708;28;20222;-67
2022/06/02 10:08:40;;;;;;;2.77;2.50;;;28.40;59.00;;;;;;6317770;28;20241;-66
2022/06/02 10:12:54;;;;;;;3.00;2.70;;;28.80;57.90;;;;;;6322035;28;20805;-69
2022/06/02 10:15:43;;;;;;;3.20;2.90;;;29.20;57.40;;;;;;6322345;28;20232;-67
2022/06/02 10:19:11;;;;;;;2.80;2.60;;;29.20;58.90;;;;;;6322536;28;20757;-66
2022/06/02 10:22:23;;;;;;;3.30;2.87;;;28.70;59.10;;;;;;6322279;28;20224;-66
2022/06/02 10:25:53;;;;;;;3.00;2.80;;;28.70;58.10;;;;;;6322875;28;20300;-66
2022/06/02 10:29:55;;;;;;;2.80;2.60;;;28.90;58.20;;;;;;6322680;28;20275;-67
2022/06/02 10:33:35;;;;;;;4.10;2.90;;;29.00;58.70;;;;;;6320634;28;20315;-64
2022/06/02 10:37:02;;;;;;;3.20;3.00;;;29.30;58.00;;;;;;6319782;28;20272;-64
2022/06/02 10:40:53;;;;;;;3.37;3.07;;;29.50;58.30;;;;;;6301651;28;20233;-65
2022/06/02 10:44:14;;;;;;;6.17;3.10;;;29.30;58.40;;;;;;6248313;28;20231;-64
2022/06/02 10:48:01;;;;;;;3.37;3.07;;;29.50;58.30;;;;;;6301754;28;20232;-64
2022/06/02 10:51:29;;;;;;;3.40;3.10;;;29.90;57.40;;;;;;6274843;28;20230;-65
2022/06/02 10:54:59;;;;;;;3.83;3.40;;;29.80;56.80;;;;;;6301405;28;20222;-65
2022/06/02 10:58:34;;;;;;;3.37;3.13;;;30.00;56.30;;;;;;6300986;28;20235;-65
2022/06/02 11:02:10;;;;;;;4.03;3.40;;;30.30;56.70;;;;;;6276839;28;20234;-65
2022/06/02 11:05:47;;;;;;;3.43;3.13;;;30.50;56.30;;;;;;6276502;28;20231;-65
2022/06/02 11:09:36;;;;;;;3.53;3.13;;;30.00;56.20;;;;;;6275860;28;20669;-65
2022/06/02 11:13:15;;;;;;;3.43;3.13;;;30.10;55.30;;;;;;6266772;28;20249;-65
2022/06/02 11:16:57;;;;;;;3.60;3.37;;;30.20;55.60;;;;;;6258295;28;20254;-66
2022/06/02 11:20:36;;;;;;;4.00;3.30;;;30.00;56.10;;;;;;6275970;28;20223;-67
2022/06/02 11:24:16;;;;;;;3.30;3.03;;;30.00;56.80;;;;;;6245566;28;20246;-67
2022/06/02 11:28:01;;;;;;;3.70;3.43;;;29.90;57.30;;;;;;6301994;28;20690;-66
2022/06/02 11:31:43;;;;;;;3.87;3.53;;;29.30;57.60;;;;;;6294058;28;20577;-68
2022/06/02 11:35:18;;;;;;;3.00;2.80;;;29.20;58.40;;;;;;6301220;28;20253;-69
2022/06/02 11:38:53;;;;;;;3.90;3.60;;;29.30;58.10;;;;;;6302180;28;20223;-67
2022/06/02 11:42:09;;;;;;;3.83;3.53;;;29.40;57.90;;;;;;6300816;28;20239;-69
2022/06/02 11:45:25;;;;;;;3.43;3.23;;;29.00;57.50;;;;;;6301932;28;20244;-68
2022/06/02 11:48:46;;;;;;;3.40;3.07;;;28.90;58.50;;;;;;6301653;28;20223;-68
2022/06/02 11:52:11;;;;;;;3.60;3.23;;;28.80;58.10;;;;;;6300153;28;20231;-67
2022/06/02 11:55:31;;;;;;;3.27;2.97;;;28.70;58.50;;;;;;6300047;28;20230;-67
2022/06/02 11:59:14;;;;;;;3.80;3.50;;;28.90;58.90;;;;;;6299726;28;20234;-68
2022/06/02 12:02:49;;;;;;;3.93;3.63;;;29.20;59.00;;;;;;6300406;28;20261;-69
2022/06/02 12:06:29;;;;;;;3.50;3.13;;;29.50;57.60;;;;;;6300853;28;20234;-65
2022/06/02 12:10:03;;;;;;;3.60;3.30;;;29.40;56.60;;;;;;6301491;28;20309;-67
2022/06/02 12:13:24;;;;;;;3.80;3.60;;;29.50;57.10;;;;;;6300820;28;20243;-67
2022/06/02 12:16:55;;;;;;;4.40;3.90;;;29.50;56.50;;;;;;6301360;28;20238;-67
2022/06/02 12:20:34;;;;;;;3.97;3.67;;;29.60;56.10;;;;;;6301177;28;20783;-68
2022/06/02 12:23:56;;;;;;;5.73;3.57;;;29.10;57.30;;;;;;6297822;28;20237;-69
2022/06/02 12:27:20;;;;;;;5.73;3.73;;;29.10;57.20;;;;;;6301001;28;20709;-68
2022/06/02 12:30:32;;;;;;;3.67;3.37;;;29.20;57.20;;;;;;6301337;28;20227;-68
2022/06/02 12:34:00;;;;;;;3.20;3.00;;;28.90;57.50;;;;;;6303137;28;20695;-70
2022/06/02 12:37:28;;;;;;;3.90;3.60;;;28.60;58.00;;;;;;6300628;28;20276;-67
2022/06/02 12:40:44;;;;;;;4.00;3.60;;;28.50;57.80;;;;;;6300433;28;20221;-67
2022/06/02 12:44:27;;;;;;;3.70;3.40;;;28.70;58.50;;;;;;6299971;28;20683;-68
2022/06/02 12:47:55;;;;;;;4.37;3.60;;;28.90;57.90;;;;;;6300119;28;20230;-69
2022/06/02 12:51:19;;;;;;;3.77;3.50;;;29.30;57.70;;;;;;6299764;28;20241;-64
2022/06/02 12:55:21;;;;;;;3.77;3.43;;;29.10;57.90;;;;;;6293195;28;20306;-63
2022/06/02 12:58:55;;;;;;;3.80;3.47;;;29.20;58.30;;;;;;6262234;28;20219;-63
2022/06/02 13:02:06;;;;;;;3.77;3.47;;;29.20;57.70;;;;;;6274823;28;20223;-64
2022/06/02 13:05:49;;;;;;;4.63;3.30;;;29.50;57.50;;;;;;6275150;28;20748;-63
2022/06/02 13:09:25;;;;;;;3.57;3.27;;;29.50;56.80;;;;;;6274894;28;20240;-63
2022/06/02 13:13:13;;;;;;;4.30;4.00;;;29.30;57.10;;;;;;6274494;28;20235;-63
2022/06/02 13:16:49;;;;;;;3.67;3.43;;;28.10;59.90;;;;;;6292717;28;20223;-63
2022/06/02 13:20:19;;;;;;;3.50;3.20;;;27.80;60.40;;;;;;6285707;28;20700;-63
2022/06/02 13:24:15;;;;;;;3.70;3.40;;;27.50;61.90;;;;;;6299688;28;20242;-63
2022/06/02 13:28:02;;;;;;;3.40;3.20;;;27.50;62.20;;;;;;6263917;28;20230;-63
2022/06/02 13:31:31;;;;;;;4.30;3.90;;;27.30;62.50;;;;;;6261642;28;20241;-64
2022/06/02 13:35:19;;;;;;;3.80;3.50;;;27.00;63.50;;;;;;6292864;28;20237;-62
2022/06/02 13:38:53;;;;;;;3.77;3.57;;;26.90;64.70;;;;;;6284361;28;20219;-62
2022/06/02 13:42:16;;;;;;;4.13;3.83;;;26.60;66.30;;;;;;6299014;28;20238;-62
2022/06/02 13:45:54;;;;;;;4.30;4.00;;;26.30;67.20;;;;;;6299182;28;20250;-62
2022/06/02 13:49:53;;;;;;;3.50;3.30;;;26.20;68.00;;;;;;6299746;28;20245;-62
2022/06/02 13:53:37;;;;;;;5.63;4.00;;;26.30;68.80;;;;;;6299674;28;20637;-62
2022/06/02 14:00:25;;;;;;;3.67;3.33;;;26.40;67.90;;;;;;6274402;28;20711;-62
2022/06/02 14:03:56;;;;;;;4.03;3.73;;;26.40;68.20;;;;;;6274113;28;20235;-63
2022/06/02 14:07:15;;;;;;;4.00;3.67;;;26.40;68.60;;;;;;6277641;28;20235;-63
2022/06/02 14:10:52;;;;;;;3.87;3.63;;;26.40;69.30;;;;;;6279420;28;20245;-63
2022/06/02 14:14:23;;;;;;;4.37;4.07;;;26.40;69.90;;;;;;6274213;28;20223;-63
2022/06/02 14:17:46;;;;;;;3.43;3.23;;;26.10;70.60;;;;;;6279110;28;20264;-63
2022/06/02 14:21:00;;;;;;;4.33;3.93;;;25.80;72.20;;;;;;6279086;28;20231;-63
2022/06/02 14:24:10;;;;;;;4.03;3.73;;;25.80;73.60;;;;;;6292506;28;20235;-64
2022/06/02 14:27:27;;;;;;;4.00;3.60;;;25.80;74.00;;;;;;6303546;28;20283;-63
2022/06/02 14:30:39;;;;;;;4.07;3.03;;;25.70;74.10;;;;;;6303701;28;20227;-63
2022/06/02 14:33:46;;;;;;;4.03;3.33;;;25.60;74.00;;;;;;6303263;28;20238;-63
2022/06/02 14:36:56;;;;;;;3.97;3.67;;;25.60;73.80;;;;;;6303683;28;20234;-68
2022/06/02 14:40:06;;;;;;;4.10;3.70;;;25.60;74.30;;;;;;6303097;28;20258;-67
2022/06/02 14:43:33;;;;;;;4.40;4.10;;;25.50;74.70;;;;;;6301636;28;20243;-68
2022/06/02 14:47:01;;;;;;;4.13;3.73;;;25.50;75.90;;;;;;6301454;28;20298;-68
2022/06/02 14:50:25;;;;;;;4.03;3.70;;;25.50;77.00;;;;;;6301561;28;20230;-67
2022/06/02 14:53:53;;;;;;;4.20;3.30;;;25.40;78.30;;;;;;6301376;28;20231;-67
2022/06/02 14:57:19;;;;;;;3.53;3.30;;;25.20;78.60;;;;;;6301899;28;20230;-67
2022/06/02 15:00:28;;;;;;;4.00;3.60;;;25.30;79.50;;;;;;6302228;28;20311;-66
2022/06/02 15:04:03;;;;;;;2.90;2.70;;;25.50;80.20;;;;;;6303488;28;20359;-66
2022/06/02 15:07:37;;;;;;;3.17;2.87;;;25.80;78.60;;;;;;6299212;28;20230;-66
2022/06/02 15:10:46;;;;;;;4.60;4.20;;;26.10;80.40;;;;;;6303565;28;20254;-66
2022/06/02 15:13:55;;;;;;;4.53;4.23;;;26.20;82.00;;;;;;6302697;28;20547;-66
2022/06/02 15:17:30;;;;;;;4.03;3.73;;;25.90;84.60;;;;;;6302873;28;20302;-66
2022/06/02 15:20:57;;;;;;;5.10;4.60;;;25.60;86.70;;;;;;6302639;28;20219;-64
2022/06/02 15:24:33;;;;;;;4.13;3.73;;;25.50;90.40;;;;;;6302674;28;20231;-65
2022/06/02 15:28:05;;;;;;;4.27;3.87;;;25.50;90.40;;;;;;6298502;28;20240;-66
2022/06/02 15:31:15;;;;;;;4.50;4.20;;;25.50;90.40;;;;;;6289628;28;20237;-67
2022/06/02 15:34:56;;;;;;;4.53;4.13;;;25.40;90.60;;;;;;6302537;28;20231;-64
2022/06/02 15:38:35;;;;;;;5.03;4.60;;;25.40;90.90;;;;;;6302934;28;20226;-63
2022/06/02 15:42:20;;;;;;;4.37;4.07;;;25.50;91.30;;;;;;6299781;28;20231;-68
2022/06/02 15:45:58;;;;;;;4.50;4.10;;;25.60;91.80;;;;;;6293583;28;20244;-65
2022/06/02 15:49:35;;;;;;;4.63;3.67;;;25.70;91.60;;;;;;6297866;28;20223;-64
2022/06/02 15:53:05;;;;;;;4.00;3.70;;;25.80;91.40;;;;;;6274770;28;20231;-64
2022/06/02 15:57:11;;;;;;;3.83;3.30;;;25.70;91.30;;;;;;6300945;28;20219;-64
2022/06/02 16:00:46;;;;;;;4.60;3.80;;;25.70;91.40;;;;;;6302459;28;20235;-64
2022/06/02 16:04:28;;;;;;;3.90;3.50;;;25.60;91.70;;;;;;6306793;28;20313;-64
2022/06/02 16:08:06;;;;;;;2.77;2.57;;;25.50;92.00;;;;;;6326056;27;20544;-64
2022/06/02 16:11:33;;;;;;;3.40;3.00;;;25.40;92.10;;;;;;6300993;27;20234;-64
2022/06/02 16:15:08;;;;;;;3.20;3.00;;;25.40;92.60;;;;;;6326512;27;20328;-64
2022/06/02 16:18:45;;;;;;;3.50;3.20;;;25.50;92.60;;;;;;6326364;27;20230;-64
2022/06/02 16:22:38;;;;;;;3.10;2.80;;;25.50;92.60;;;;;;6321951;27;20229;-64
2022/06/02 16:26:04;;;;;;;4.10;3.73;;;25.50;92.80;;;;;;6233579;28;20236;-64
2022/06/02 16:29:35;;;;;;;4.00;3.40;;;25.30;92.90;;;;;;6297183;28;20683;-64
2022/06/02 16:33:23;;;;;;;3.83;3.50;;;25.00;93.20;;;;;;6295519;28;20238;-64
2022/06/02 16:37:06;;;;;;;4.03;3.50;;;24.60;93.90;;;;;;6283496;28;20218;-66
2022/06/02 16:40:24;;;;;;;3.93;3.63;;;24.30;94.00;;;;;;6290315;28;20226;-65
2022/06/02 16:44:03;;;;;;;5.50;3.93;;;23.90;94.60;;;;;;6324372;27;20682;-63
2022/06/02 16:47:24;;;;;;;3.33;3.13;;;23.70;95.00;;;;;;6322917;28;20219;-63
2022/06/02 16:50:49;;;;;;;4.40;4.00;;;23.60;95.30;;;;;;6323259;28;20226;-63
2022/06/02 16:54:15;;;;;;;3.57;3.20;;;23.30;95.90;;;;;;6322296;28;20226;-63
2022/06/02 16:57:30;;;;;;;4.23;3.93;;;23.20;96.40;;;;;;6321386;28;20223;-61
2022/06/02 17:00:43;;;;;;;3.93;3.63;;;23.10;97.00;;;;;;6324663;28;20223;-62
2022/06/02 17:04:02;;;;;;;4.50;4.03;;;23.00;97.60;;;;;;6324604;28;20222;-62
2022/06/02 17:07:13;;;;;;;4.13;3.83;;;23.00;98.20;;;;;;6323236;28;20222;-62
2022/06/02 17:10:29;;;;;;;4.53;4.13;;;22.90;98.40;;;;;;6322558;28;20222;-62
2022/06/02 17:13:40;;;;;;;3.23;3.00;;;22.80;98.60;;;;;;6324544;27;20279;-65
2022/06/02 17:16:58;;;;;;;3.53;3.33;;;22.80;98.60;;;;;;6325172;28;20211;-65
2022/06/02 17:20:16;;;;;;;3.10;2.90;;;22.70;98.80;;;;;;6323919;28;20347;-62
2022/06/02 17:23:40;;;;;;;3.27;3.07;;;22.60;99.20;;;;;;6324657;28;20227;-62
2022/06/02 17:27:02;;;;;;;3.20;3.00;;;22.40;99.60;;;;;;6324167;28;20218;-63
2022/06/02 17:30:12;;;;;;;3.10;2.80;;;22.30;99.90;;;;;;6299728;28;20229;-64
2022/06/02 17:33:33;;;;;;;3.00;2.80;;;22.10;99.90;;;;;;6301601;28;20227;-62
2022/06/02 17:36:48;;;;;;;3.40;3.03;;;22.10;99.90;;;;;;6315422;28;20240;-63
2022/06/02 17:40:21;;;;;;;2.80;2.60;;;22.00;99.90;;;;;;6323727;27;20231;-63
2022/06/02 17:43:41;;;;;;;2.93;2.67;;;22.00;99.90;;;;;;6299303;28;20556;-63
2022/06/02 17:47:11;;;;;;;3.57;3.27;;;21.80;99.90;;;;;;6299847;28;20231;-64